createdAt,value
2022-09-07T00:02:13.674Z,1.37
2022-09-07T00:06:15.675Z,1.00
2022-09-07T00:10:17.455Z,1.02
2022-09-07T00:14:19.194Z,1.15
2022-09-07T00:18:21.219Z,1.40
2022-09-07T00:22:22.998Z,1.10
2022-09-07T00:26:30.330Z,1.05
2022-09-07T00:34:34.352Z,1.50
2022-09-07T00:38:36.611Z,1.67
2022-09-07T00:42:38.337Z,1.35
2022-09-07T00:46:40.168Z,1.42
2022-09-07T00:50:53.495Z,1.67
2022-09-07T00:54:59.554Z,1.77
2022-09-07T00:59:01.792Z,2.25
2022-09-07T01:03:05.257Z,2.28
2022-09-07T01:07:07.835Z,1.80
2022-09-07T01:11:10.007Z,2.30
2022-09-07T01:15:12.429Z,1.75
2022-09-07T01:19:39.363Z,1.50
2022-09-07T01:24:02.261Z,1.55
2022-09-07T01:28:21.119Z,1.55
2022-09-07T01:33:04.831Z,1.92
2022-09-07T01:37:22.726Z,1.90
2022-09-07T01:41:52.044Z,1.67
2022-09-07T01:45:56.912Z,1.33
2022-09-07T01:50:21.091Z,1.50
2022-09-07T01:54:32.049Z,1.15
2022-09-07T01:59:02.876Z,1.10
2022-09-07T02:03:10.923Z,1.70
2022-09-07T02:07:15.539Z,1.80
2022-09-07T02:11:21.143Z,2.25
2022-09-07T02:15:43.229Z,2.05
2022-09-07T02:19:51.847Z,2.10
2022-09-07T02:24:22.746Z,2.33
2022-09-07T02:28:33.197Z,2.53
2022-09-07T02:32:35.149Z,2.55
2022-09-07T02:36:43.527Z,3.03
2022-09-07T02:40:52.195Z,2.35
2022-09-07T02:44:53.973Z,2.53
2022-09-07T02:49:26.772Z,1.77
2022-09-07T02:53:52.552Z,1.80
2022-09-07T02:58:00.689Z,1.65
2022-09-07T03:02:24.978Z,1.40
2022-09-07T03:06:40.704Z,1.42
2022-09-07T03:10:43.729Z,1.67
2022-09-07T03:14:45.883Z,1.10
2022-09-07T03:18:47.588Z,1.10
2022-09-07T03:22:52.107Z,1.30
2022-09-07T03:26:53.918Z,1.40
2022-09-07T03:30:56.552Z,1.40
2022-09-07T03:35:00.681Z,1.50
2022-09-07T03:39:03.947Z,1.20
2022-09-07T03:43:05.726Z,2.10
2022-09-07T03:47:07.603Z,1.70
2022-09-07T03:51:11.290Z,2.15
2022-09-07T03:55:13.402Z,2.72
2022-09-07T03:59:15.164Z,3.60
2022-09-07T04:03:16.874Z,4.43
2022-09-07T04:07:18.687Z,4.75
2022-09-07T04:11:20.548Z,5.30
2022-09-07T04:15:22.275Z,5.30
2022-09-07T04:19:24.170Z,6.28
2022-09-07T04:23:25.853Z,7.07
2022-09-07T04:27:27.575Z,7.57
2022-09-07T04:31:29.538Z,9.30
2022-09-07T04:35:31.303Z,10.27
2022-09-07T04:39:33.125Z,10.05
2022-09-07T04:43:36.183Z,11.45
2022-09-07T04:47:37.942Z,11.40
2022-09-07T04:51:42.464Z,12.30
2022-09-07T04:55:44.209Z,12.98
2022-09-07T04:59:45.928Z,14.32
2022-09-07T05:03:48.276Z,15.45
2022-09-07T05:07:49.995Z,17.95
2022-09-07T05:11:51.760Z,17.48
2022-09-07T05:15:53.504Z,18.77
2022-09-07T05:19:55.291Z,17.58
2022-09-07T05:23:58.298Z,17.67
2022-09-07T05:28:00.244Z,16.40
2022-09-07T05:32:02.398Z,14.82
2022-09-07T05:36:06.179Z,12.52
2022-09-07T05:40:09.047Z,11.15
2022-09-07T05:48:32.501Z,10.07
2022-09-07T05:52:34.352Z,10.57
2022-09-07T05:56:36.628Z,11.93
2022-09-07T06:00:38.483Z,11.35
2022-09-07T06:04:40.411Z,14.98
2022-09-07T06:08:47.741Z,13.15
2022-09-07T06:16:51.452Z,16.58
2022-09-07T06:20:53.234Z,16.37
2022-09-07T06:24:55.003Z,17.87
2022-09-07T06:28:58.026Z,18.00
2022-09-07T06:32:59.833Z,18.75
2022-09-07T06:37:01.716Z,17.37
2022-09-07T06:45:26.134Z,19.37
2022-09-07T06:49:27.952Z,18.98
2022-09-07T06:53:34.914Z,19.73
2022-09-07T06:57:36.731Z,20.65
2022-09-07T07:01:38.551Z,19.08
2022-09-07T07:05:40.351Z,18.58
2022-09-07T07:09:42.389Z,18.90
2022-09-07T07:13:45.171Z,18.33
2022-09-07T07:17:53.201Z,19.08
2022-09-07T07:26:21.936Z,21.05
2022-09-07T07:30:23.734Z,21.12
2022-09-07T07:34:25.602Z,19.95
2022-09-07T07:42:52.387Z,20.42
2022-09-07T07:46:54.272Z,21.48
2022-09-07T07:51:04.359Z,20.40
2022-09-07T07:59:30.666Z,19.95
2022-09-07T08:03:35.867Z,19.35
2022-09-07T08:07:37.879Z,19.75
2022-09-07T08:11:40.384Z,18.40
2022-09-07T08:15:45.128Z,17.50
2022-09-07T08:19:47.240Z,13.90
2022-09-07T08:23:48.986Z,14.27
2022-09-07T08:27:50.579Z,11.90
2022-09-07T08:31:52.314Z,12.75
2022-09-07T08:36:21.418Z,13.15
2022-09-07T08:40:23.080Z,13.07
2022-09-07T08:44:42.879Z,9.38
2022-09-07T08:48:44.983Z,8.73
2022-09-07T08:53:08.969Z,7.15
2022-09-07T08:57:26.235Z,5.50
2022-09-07T09:06:30.587Z,5.80
2022-09-07T09:10:39.820Z,3.65
2022-09-07T09:15:08.860Z,4.57
2022-09-07T09:19:40.048Z,5.20
2022-09-07T09:23:43.778Z,5.18
2022-09-07T09:27:45.871Z,5.62
2022-09-07T09:31:47.547Z,3.25
2022-09-07T09:35:51.596Z,1.92
2022-09-07T09:40:02.232Z,1.83
2022-09-07T09:44:04.847Z,1.80
2022-09-07T09:48:11.597Z,2.00
2022-09-07T09:52:40.343Z,2.03
2022-09-07T09:56:45.187Z,2.00
2022-09-07T10:05:28.589Z,2.20
2022-09-07T10:09:38.111Z,2.10
2022-09-07T10:13:46.889Z,2.15
2022-09-07T10:17:50.438Z,2.20
2022-09-07T10:21:58.104Z,2.30
2022-09-07T10:26:19.187Z,1.92
2022-09-07T10:30:20.867Z,1.75
2022-09-07T10:35:01.153Z,2.10
2022-09-07T10:39:17.185Z,1.98
2022-09-07T10:43:49.835Z,2.20
2022-09-07T10:48:11.215Z,2.47
2022-09-07T10:52:28.264Z,2.62
2022-09-07T10:56:39.347Z,2.80
2022-09-07T11:00:51.649Z,2.25
2022-09-07T11:05:10.330Z,2.33
2022-09-07T11:09:48.085Z,2.90
2022-09-07T11:14:11.954Z,2.30
2022-09-07T11:18:26.390Z,2.35
2022-09-07T11:22:27.989Z,1.87
2022-09-07T11:26:42.908Z,2.00
2022-09-07T11:30:50.643Z,2.37
2022-09-07T11:34:57.377Z,1.90
2022-09-07T11:39:11.564Z,2.03
2022-09-07T11:43:34.851Z,3.00
2022-09-07T11:47:59.056Z,2.62
2022-09-07T11:52:16.552Z,3.08
2022-09-07T12:00:41.652Z,2.70
2022-09-07T12:04:56.624Z,3.12
2022-09-07T12:09:20.559Z,2.72
2022-09-07T12:13:37.963Z,2.60
2022-09-07T12:17:51.378Z,2.47
2022-09-07T12:21:52.938Z,3.00
2022-09-07T12:26:43.542Z,2.15
2022-09-07T12:31:06.669Z,2.67
2022-09-07T12:35:28.418Z,2.90
2022-09-07T12:39:34.322Z,2.47
2022-09-07T12:43:47.923Z,3.00
2022-09-07T12:47:58.128Z,3.17
2022-09-07T12:52:21.363Z,2.50
2022-09-07T12:56:46.669Z,1.92
2022-09-07T13:01:15.195Z,1.75
2022-09-07T13:05:54.463Z,1.95
2022-09-07T13:09:58.482Z,1.80
2022-09-07T13:14:09.559Z,2.10
2022-09-07T13:18:35.287Z,2.08
2022-09-07T13:22:36.952Z,2.00
2022-09-07T13:27:03.447Z,1.80
2022-09-07T13:31:16.516Z,1.87
2022-09-07T13:35:24.465Z,1.20
2022-09-07T13:39:26.641Z,1.12
2022-09-07T13:43:28.490Z,1.30
2022-09-07T13:47:39.129Z,1.17
2022-09-07T13:51:49.879Z,1.05
2022-09-07T13:55:57.627Z,0.90
2022-09-07T13:59:59.561Z,1.02
2022-09-07T14:04:07.545Z,0.75
2022-09-07T14:08:29.398Z,0.85
2022-09-07T14:12:31.223Z,0.73
2022-09-07T14:16:34.225Z,0.82
2022-09-07T14:20:51.288Z,0.80
2022-09-07T14:24:57.712Z,1.00
2022-09-07T14:29:01.358Z,0.70
2022-09-07T14:33:10.922Z,0.73
2022-09-07T14:37:15.505Z,0.55
2022-09-07T14:41:19.867Z,0.70
2022-09-07T14:45:24.215Z,0.70
2022-09-07T14:49:25.988Z,0.77
2022-09-07T14:53:35.274Z,0.62
2022-09-07T14:57:37.259Z,0.90
2022-09-07T15:01:39.138Z,0.70
2022-09-07T15:05:48.114Z,1.30
2022-09-07T15:09:49.704Z,0.90
2022-09-07T15:13:59.861Z,0.90
2022-09-07T15:18:08.739Z,0.60
2022-09-07T15:22:27.100Z,0.90
2022-09-07T15:35:26.703Z,0.88
2022-09-07T15:39:29.653Z,1.10
2022-09-07T15:43:31.844Z,0.70
2022-09-07T15:47:52.088Z,0.85
2022-09-07T15:52:11.218Z,0.90
2022-09-07T15:56:13.243Z,0.80
2022-09-07T16:00:15.305Z,0.90
2022-09-07T16:04:17.047Z,1.02
2022-09-07T16:08:26.119Z,1.00
2022-09-07T16:21:13.093Z,0.93
2022-09-07T16:25:14.731Z,1.00
2022-09-07T16:29:17.890Z,0.95
2022-09-07T16:33:19.690Z,0.98
2022-09-07T16:37:21.412Z,0.80
2022-09-07T16:41:29.174Z,1.20
2022-09-07T16:49:52.627Z,0.90
2022-09-07T16:53:56.022Z,1.02
2022-09-07T17:02:19.440Z,0.80
2022-09-07T17:06:30.996Z,1.00
2022-09-07T17:10:32.945Z,0.90
2022-09-07T17:14:34.563Z,0.85
2022-09-07T17:23:01.015Z,1.30
2022-09-07T17:27:03.498Z,0.90
2022-09-07T17:31:10.910Z,6.90
2022-09-07T17:35:12.699Z,1.40
2022-09-07T17:39:17.132Z,0.90
2022-09-07T17:47:43.150Z,1.00
2022-09-07T17:51:45.437Z,0.70
2022-09-07T17:55:47.094Z,1.20
2022-09-07T18:04:11.761Z,1.20
2022-09-07T18:08:13.795Z,1.30
2022-09-07T18:12:15.459Z,1.35
2022-09-07T18:16:20.111Z,1.00
2022-09-07T18:20:24.042Z,0.93
2022-09-07T18:24:25.800Z,1.30
2022-09-07T18:32:49.048Z,1.20
2022-09-07T18:36:51.143Z,1.35
2022-09-07T18:41:04.915Z,1.55
2022-09-07T18:49:28.555Z,1.30
2022-09-07T18:53:30.824Z,1.55
2022-09-07T18:57:32.737Z,1.45
2022-09-07T19:01:34.411Z,1.98
2022-09-07T19:05:52.926Z,2.35
2022-09-07T19:09:54.819Z,1.90
2022-09-07T19:14:04.013Z,1.60
2022-09-07T19:18:07.657Z,1.50
2022-09-07T19:22:09.259Z,1.70
2022-09-07T19:26:11.135Z,1.90
2022-09-07T19:30:13.465Z,2.05
2022-09-07T19:34:15.132Z,1.90
2022-09-07T19:38:17.716Z,1.50
2022-09-07T19:42:19.323Z,1.55
2022-09-07T19:46:24.822Z,1.70
2022-09-07T19:50:26.797Z,1.77
2022-09-07T19:54:28.427Z,3.25
2022-09-07T19:58:32.718Z,1.83
2022-09-07T20:02:34.404Z,1.60
2022-09-07T20:06:38.602Z,1.50
2022-09-07T20:10:40.329Z,1.40
2022-09-07T20:14:41.913Z,1.50
2022-09-07T20:18:44.251Z,1.58
2022-09-07T20:22:46.339Z,1.62
2022-09-07T20:26:48.369Z,1.45
2022-09-07T20:30:50.207Z,1.95
2022-09-07T20:34:52.976Z,1.55
2022-09-07T20:38:56.457Z,1.50
2022-09-07T20:42:58.686Z,1.30
2022-09-07T20:47:00.745Z,1.60
2022-09-07T20:51:04.167Z,1.62
2022-09-07T20:55:06.099Z,1.73
2022-09-07T20:59:07.897Z,1.80
2022-09-07T21:03:10.347Z,1.42
2022-09-07T21:07:11.953Z,1.50
2022-09-07T21:11:31.741Z,1.48
2022-09-07T21:15:41.539Z,1.60
2022-09-07T21:19:43.195Z,1.73
2022-09-07T21:23:44.837Z,1.40
2022-09-07T21:27:46.466Z,1.40
2022-09-07T21:31:48.211Z,1.75
2022-09-07T21:35:50.041Z,1.58
2022-09-07T21:39:51.703Z,1.80
2022-09-07T21:44:01.141Z,2.12
2022-09-07T21:48:02.896Z,1.90
2022-09-07T21:52:04.486Z,1.80
2022-09-07T21:56:09.261Z,1.92
2022-09-07T22:00:11.620Z,2.12
2022-09-07T22:04:13.489Z,2.00
2022-09-07T22:08:15.791Z,2.60
2022-09-07T22:12:17.496Z,2.10
2022-09-07T22:16:19.366Z,2.08
2022-09-07T22:20:21.456Z,2.30
2022-09-07T22:24:23.064Z,2.37
2022-09-07T22:28:24.999Z,2.30
2022-09-07T22:32:26.791Z,2.62
2022-09-07T22:36:30.123Z,2.40
2022-09-07T22:40:31.792Z,2.85
2022-09-07T22:44:33.396Z,2.20
2022-09-07T22:48:35.490Z,2.22
2022-09-07T22:52:37.122Z,2.60
2022-09-07T22:56:39.391Z,2.20
2022-09-07T23:00:41.004Z,2.25
2022-09-07T23:04:42.768Z,2.25
2022-09-07T23:08:44.571Z,2.03
2022-09-07T23:12:46.131Z,2.10
2022-09-07T23:16:48.230Z,2.03
2022-09-07T23:20:49.826Z,2.00
2022-09-07T23:24:51.435Z,2.03
2022-09-07T23:28:54.785Z,2.33
2022-09-07T23:32:56.483Z,2.40
2022-09-07T23:36:58.180Z,2.37
2022-09-07T23:41:00.494Z,2.37
2022-09-07T23:45:02.975Z,2.92
2022-09-07T23:49:04.662Z,2.87
2022-09-07T23:53:06.329Z,3.00
2022-09-07T23:57:07.963Z,2.65
